createdAt,value
2019-06-26T00:00:17.047Z,29.90
2019-06-26T00:02:46.173Z,30.00
2019-06-26T00:05:15.199Z,30.00
2019-06-26T00:07:44.338Z,30.00
2019-06-26T00:10:13.301Z,29.90
2019-06-26T00:12:42.308Z,29.90
2019-06-26T00:15:11.201Z,29.80
2019-06-26T00:17:40.334Z,29.80
2019-06-26T00:20:09.275Z,29.70
2019-06-26T00:22:40.212Z,29.70
2019-06-26T00:25:09.076Z,29.60
2019-06-26T00:27:38.036Z,29.50
2019-06-26T00:30:07.693Z,29.50
2019-06-26T00:32:36.711Z,29.40
2019-06-26T00:35:06.423Z,29.30
2019-06-26T00:37:35.442Z,29.20
2019-06-26T00:40:08.183Z,29.10
2019-06-26T00:42:37.157Z,29.10
2019-06-26T00:45:07.021Z,29.00
2019-06-26T00:50:06.862Z,28.80
2019-06-26T00:52:35.927Z,28.70
2019-06-26T00:55:06.289Z,28.70
2019-06-26T00:57:35.312Z,28.60
2019-06-26T01:00:09.909Z,28.60
2019-06-26T01:02:38.904Z,28.50
2019-06-26T01:05:09.696Z,28.50
2019-06-26T01:07:38.909Z,28.30
2019-06-26T01:10:08.012Z,28.40
2019-06-26T01:12:37.160Z,28.30
2019-06-26T01:15:06.674Z,28.30
2019-06-26T01:17:35.611Z,28.30
2019-06-26T01:20:07.096Z,28.20
2019-06-26T01:22:36.223Z,28.20
2019-06-26T01:25:05.642Z,28.10
2019-06-26T01:27:34.712Z,28.10
2019-06-26T01:30:05.045Z,28.00
2019-06-26T01:32:34.202Z,28.00
2019-06-26T01:35:03.654Z,27.90
2019-06-26T01:37:32.682Z,27.90
2019-06-26T01:40:01.640Z,27.90
2019-06-26T01:42:30.427Z,27.80
2019-06-26T01:44:59.393Z,27.80
2019-06-26T01:47:28.494Z,27.70
2019-06-26T01:49:57.663Z,27.70
2019-06-26T01:52:26.766Z,27.70
2019-06-26T01:54:55.855Z,27.60
2019-06-26T01:57:24.945Z,27.60
2019-06-26T01:59:53.963Z,27.60
2019-06-26T02:02:22.961Z,27.60
2019-06-26T02:04:51.812Z,27.50
2019-06-26T02:07:20.940Z,27.60
2019-06-26T02:09:49.779Z,27.60
2019-06-26T02:12:18.823Z,27.40
2019-06-26T02:14:47.722Z,27.50
2019-06-26T02:17:16.693Z,27.40
2019-06-26T02:19:46.154Z,27.40
2019-06-26T02:22:15.324Z,27.30
2019-06-26T02:24:44.270Z,27.40
2019-06-26T02:27:13.374Z,27.30
2019-06-26T02:29:42.365Z,27.20
2019-06-26T02:32:11.450Z,27.30
2019-06-26T02:34:40.565Z,27.20
2019-06-26T02:37:09.513Z,27.20
2019-06-26T02:42:07.498Z,27.10
2019-06-26T02:44:52.533Z,27.10
2019-06-26T02:47:19.715Z,27.10
2019-06-26T02:49:37.991Z,27.00
2019-06-26T02:52:06.903Z,27.10
2019-06-26T02:54:35.988Z,27.00
2019-06-26T02:57:04.963Z,27.00
2019-06-26T02:59:34.000Z,27.10
2019-06-26T03:02:03.070Z,27.10
2019-06-26T03:04:31.951Z,27.30
2019-06-26T03:07:00.864Z,27.30
2019-06-26T03:09:29.981Z,27.40
2019-06-26T03:11:58.895Z,27.30
2019-06-26T03:14:27.888Z,27.40
2019-06-26T03:16:56.817Z,27.40
2019-06-26T03:19:25.931Z,27.40
2019-06-26T03:21:54.948Z,27.50
2019-06-26T03:24:24.088Z,27.50
2019-06-26T03:26:53.019Z,27.40
2019-06-26T03:29:22.072Z,27.40
2019-06-26T03:31:51.224Z,27.40
2019-06-26T03:34:20.255Z,27.40
2019-06-26T03:36:49.224Z,27.20
2019-06-26T03:39:18.171Z,27.30
2019-06-26T03:41:47.257Z,27.30
2019-06-26T03:44:16.437Z,27.30
2019-06-26T03:46:45.319Z,27.30
2019-06-26T03:49:14.201Z,27.30
2019-06-26T03:51:43.192Z,27.30
2019-06-26T03:54:12.186Z,27.30
2019-06-26T03:56:40.932Z,27.20
2019-06-26T03:59:10.078Z,27.20
2019-06-26T04:01:39.111Z,27.20
2019-06-26T04:04:08.138Z,27.10
2019-06-26T04:06:37.215Z,27.20
2019-06-26T04:09:06.864Z,27.20
2019-06-26T04:11:35.759Z,27.10
2019-06-26T04:14:04.650Z,27.10
2019-06-26T04:16:33.677Z,27.10
2019-06-26T04:19:02.791Z,27.10
2019-06-26T04:21:31.809Z,27.00
2019-06-26T04:24:00.632Z,27.10
2019-06-26T04:26:29.676Z,27.00
2019-06-26T04:28:58.851Z,27.10
2019-06-26T04:31:27.721Z,27.10
2019-06-26T04:33:57.041Z,27.00
2019-06-26T04:36:26.238Z,27.10
2019-06-26T04:38:55.291Z,27.00
2019-06-26T04:41:24.338Z,27.00
2019-06-26T04:43:53.345Z,27.00
2019-06-26T04:46:22.103Z,26.90
2019-06-26T04:48:51.155Z,27.00
2019-06-26T04:51:20.158Z,26.90
2019-06-26T04:53:49.447Z,26.90
2019-06-26T04:56:18.403Z,26.90
2019-06-26T04:58:47.292Z,26.90
2019-06-26T05:01:16.327Z,26.90
2019-06-26T05:03:45.388Z,26.90
2019-06-26T05:06:14.458Z,27.00
2019-06-26T05:08:43.415Z,27.10
2019-06-26T05:11:12.975Z,27.10
2019-06-26T05:13:42.176Z,27.20
2019-06-26T05:16:15.622Z,27.20
2019-06-26T05:18:41.859Z,27.20
2019-06-26T05:21:10.992Z,27.20
2019-06-26T05:23:40.160Z,27.30
2019-06-26T05:26:09.277Z,27.30
2019-06-26T05:28:38.293Z,27.30
2019-06-26T05:31:07.103Z,27.20
2019-06-26T05:33:36.096Z,27.30
2019-06-26T05:36:04.850Z,27.30
2019-06-26T05:38:33.875Z,27.30
2019-06-26T05:41:02.760Z,27.20
2019-06-26T05:43:31.758Z,27.30
2019-06-26T05:46:00.969Z,27.20
2019-06-26T05:48:30.200Z,27.20
2019-06-26T05:50:59.048Z,27.10
2019-06-26T05:53:28.038Z,27.20
2019-06-26T05:55:56.927Z,27.20
2019-06-26T05:58:25.831Z,27.20
2019-06-26T06:00:54.933Z,27.30
2019-06-26T06:03:24.098Z,27.30
2019-06-26T06:05:53.055Z,27.30
2019-06-26T06:08:21.943Z,27.40
2019-06-26T06:10:50.914Z,27.50
2019-06-26T06:13:20.232Z,27.50
2019-06-26T06:15:49.275Z,27.50
2019-06-26T06:18:18.163Z,27.50
2019-06-26T06:20:47.074Z,27.50
2019-06-26T06:23:16.074Z,27.50
2019-06-26T06:25:45.070Z,27.50
2019-06-26T06:28:14.129Z,27.40
2019-06-26T06:30:43.226Z,27.40
2019-06-26T06:33:12.407Z,27.40
2019-06-26T06:35:41.394Z,27.40
2019-06-26T06:38:10.539Z,27.40
2019-06-26T06:40:39.358Z,27.40
2019-06-26T06:43:08.395Z,27.40
2019-06-26T06:45:39.074Z,27.40
2019-06-26T06:48:08.401Z,27.50
2019-06-26T06:50:37.337Z,27.50
2019-06-26T06:53:06.242Z,27.50
2019-06-26T06:55:35.369Z,27.70
2019-06-26T06:58:04.326Z,27.70
2019-06-26T07:00:33.223Z,27.80
2019-06-26T07:03:02.446Z,27.90
2019-06-26T07:05:31.431Z,27.90
2019-06-26T07:08:00.534Z,28.00
2019-06-26T07:10:29.322Z,28.00
2019-06-26T07:12:58.698Z,28.00
2019-06-26T07:15:27.598Z,28.00
2019-06-26T07:17:56.588Z,28.10
2019-06-26T07:20:25.689Z,28.10
2019-06-26T07:22:54.557Z,28.10
2019-06-26T07:25:23.462Z,28.20
2019-06-26T07:27:52.487Z,28.20
2019-06-26T07:30:21.383Z,28.30
2019-06-26T07:32:52.918Z,28.30
2019-06-26T07:35:21.830Z,28.30
2019-06-26T07:37:51.127Z,28.30
2019-06-26T07:40:20.429Z,28.30
2019-06-26T07:42:49.434Z,28.40
2019-06-26T07:45:18.390Z,28.40
2019-06-26T07:47:47.585Z,28.50
2019-06-26T07:50:17.367Z,28.50
2019-06-26T07:52:46.462Z,28.70
2019-06-26T07:55:15.660Z,28.80
2019-06-26T07:57:44.733Z,28.90
2019-06-26T08:00:13.889Z,28.90
2019-06-26T08:02:42.833Z,29.00
2019-06-26T08:05:11.772Z,29.10
2019-06-26T08:07:40.798Z,29.10
2019-06-26T08:10:09.802Z,29.30
2019-06-26T08:12:38.823Z,29.30
2019-06-26T08:15:07.750Z,29.40
2019-06-26T08:17:36.806Z,29.50
2019-06-26T08:20:05.881Z,29.40
2019-06-26T08:22:34.805Z,29.60
2019-06-26T08:25:06.380Z,29.60
2019-06-26T08:27:35.232Z,29.70
2019-06-26T08:30:06.087Z,29.70
2019-06-26T08:32:34.877Z,29.80
2019-06-26T08:35:05.217Z,29.80
2019-06-26T08:37:34.120Z,29.90
2019-06-26T08:40:03.567Z,30.00
2019-06-26T08:42:33.021Z,30.10
2019-06-26T08:45:03.484Z,30.10
2019-06-26T08:47:32.499Z,30.30
2019-06-26T08:50:01.515Z,30.40
2019-06-26T08:52:30.486Z,30.40
2019-06-26T08:54:59.455Z,30.50
2019-06-26T08:57:28.381Z,30.50
2019-06-26T08:59:57.402Z,30.60
2019-06-26T09:02:26.282Z,30.60
2019-06-26T09:04:55.300Z,30.80
2019-06-26T09:07:43.420Z,30.80
2019-06-26T09:10:12.471Z,31.00
2019-06-26T09:12:41.749Z,31.10
2019-06-26T09:15:18.338Z,31.20
2019-06-26T09:17:49.966Z,31.20
2019-06-26T09:20:39.263Z,31.40
2019-06-26T09:23:08.182Z,31.40
2019-06-26T09:25:37.173Z,31.60
2019-06-26T09:28:08.870Z,31.70
2019-06-26T09:30:37.877Z,31.90
2019-06-26T09:33:07.140Z,32.10
2019-06-26T09:35:36.199Z,32.40
2019-06-26T09:38:05.087Z,32.70
2019-06-26T09:40:34.133Z,33.10
2019-06-26T09:43:03.422Z,33.40
2019-06-26T09:45:32.431Z,33.70
2019-06-26T09:48:01.538Z,34.00
2019-06-26T09:50:30.466Z,34.30
2019-06-26T09:52:59.564Z,34.50
2019-06-26T09:55:28.482Z,34.80
2019-06-26T09:57:57.664Z,35.00
2019-06-26T10:00:26.751Z,35.20
2019-06-26T10:02:55.815Z,35.40
2019-06-26T10:05:24.809Z,35.70
2019-06-26T10:07:53.867Z,35.90
2019-06-26T10:10:22.786Z,36.10
2019-06-26T10:12:51.604Z,36.20
2019-06-26T10:15:20.706Z,36.40
2019-06-26T10:17:49.751Z,36.50
2019-06-26T10:20:18.938Z,36.50
2019-06-26T10:22:47.816Z,36.70
2019-06-26T10:25:16.795Z,36.70
2019-06-26T10:27:45.822Z,36.70
2019-06-26T10:30:14.749Z,36.80
2019-06-26T10:32:43.979Z,36.70
2019-06-26T10:35:12.897Z,36.70
2019-06-26T10:37:41.864Z,36.70
2019-06-26T10:40:10.941Z,36.70
2019-06-26T10:42:40.118Z,36.70
2019-06-26T10:45:09.685Z,36.80
2019-06-26T10:47:39.946Z,36.70
2019-06-26T10:50:09.131Z,36.70
2019-06-26T10:52:38.332Z,36.60
2019-06-26T10:55:07.626Z,36.50
2019-06-26T10:57:36.686Z,36.40
2019-06-26T11:00:09.096Z,36.30
2019-06-26T11:02:38.239Z,36.30
2019-06-26T11:05:08.192Z,36.40
2019-06-26T11:07:36.936Z,36.50
2019-06-26T11:10:08.644Z,36.70
2019-06-26T11:12:37.741Z,36.80
2019-06-26T11:15:09.863Z,36.90
2019-06-26T11:17:38.973Z,36.90
2019-06-26T11:20:08.524Z,37.00
2019-06-26T11:22:37.803Z,37.00
2019-06-26T11:25:10.233Z,37.10
2019-06-26T11:27:39.316Z,37.10
2019-06-26T11:30:10.019Z,37.10
2019-06-26T11:32:38.946Z,37.10
2019-06-26T11:35:07.925Z,37.10
2019-06-26T11:37:37.105Z,37.20
2019-06-26T11:40:06.641Z,37.30
2019-06-26T11:42:35.724Z,37.40
2019-06-26T11:45:06.539Z,37.50
2019-06-26T11:47:35.812Z,37.50
2019-06-26T11:50:08.378Z,37.60
2019-06-26T11:52:37.449Z,37.80
2019-06-26T11:55:07.555Z,37.90
2019-06-26T11:57:36.584Z,37.90
2019-06-26T12:00:08.343Z,38.00
2019-06-26T12:02:37.121Z,37.90
2019-06-26T12:05:07.750Z,37.80
2019-06-26T12:07:36.760Z,37.80
2019-06-26T12:10:08.211Z,37.70
2019-06-26T12:12:37.454Z,37.60
2019-06-26T12:15:06.893Z,37.60
2019-06-26T12:17:35.796Z,37.50
2019-06-26T12:20:17.814Z,37.50
2019-06-26T12:22:36.289Z,37.50
2019-06-26T12:25:05.808Z,37.50
2019-06-26T12:27:34.806Z,37.50
2019-06-26T12:30:05.346Z,37.50
2019-06-26T12:32:41.771Z,37.40
2019-06-26T12:35:06.482Z,37.40
2019-06-26T12:37:38.028Z,37.30
2019-06-26T12:40:06.970Z,37.30
2019-06-26T12:42:36.073Z,37.20
2019-06-26T12:45:09.427Z,37.20
2019-06-26T12:47:38.335Z,37.10
2019-06-26T12:50:07.603Z,37.00
2019-06-26T12:52:36.618Z,37.00
2019-06-26T12:55:08.570Z,36.90
2019-06-26T12:57:37.547Z,36.80
2019-06-26T13:00:09.041Z,36.80
2019-06-26T13:02:38.000Z,36.80
2019-06-26T13:05:07.435Z,36.90
2019-06-26T13:07:36.429Z,37.00
2019-06-26T13:10:07.656Z,37.00
2019-06-26T13:12:37.239Z,37.10
2019-06-26T13:15:09.186Z,37.10
2019-06-26T13:17:38.263Z,37.20
2019-06-26T13:20:10.002Z,37.30
2019-06-26T13:22:38.794Z,37.40
2019-06-26T13:25:08.108Z,37.60
2019-06-26T13:27:37.145Z,37.80
2019-06-26T13:30:07.374Z,37.90
2019-06-26T13:32:36.502Z,37.90
2019-06-26T13:35:07.676Z,37.90
2019-06-26T13:37:36.742Z,37.90
2019-06-26T13:40:08.667Z,37.90
2019-06-26T13:42:37.879Z,37.90
2019-06-26T13:45:07.888Z,37.90
2019-06-26T13:47:36.727Z,37.90
2019-06-26T13:50:15.820Z,38.00
2019-06-26T13:52:44.628Z,38.00
2019-06-26T13:55:13.553Z,38.00
2019-06-26T13:57:42.539Z,38.00
2019-06-26T14:00:11.780Z,37.90
2019-06-26T14:02:40.733Z,37.90
2019-06-26T14:05:09.850Z,37.90
2019-06-26T14:07:38.886Z,38.00
2019-06-26T14:10:07.938Z,38.10
2019-06-26T14:12:36.863Z,38.20
2019-06-26T14:15:07.155Z,38.10
2019-06-26T14:17:36.150Z,38.00
2019-06-26T14:20:06.523Z,37.80
2019-06-26T14:22:35.679Z,37.40
2019-06-26T14:25:09.212Z,37.10
2019-06-26T14:27:37.486Z,36.80
2019-06-26T14:30:09.190Z,36.60
2019-06-26T14:32:38.303Z,36.40
2019-06-26T14:35:07.675Z,36.10
2019-06-26T14:37:36.825Z,36.00
2019-06-26T14:40:11.959Z,35.80
2019-06-26T14:42:41.504Z,35.60
2019-06-26T14:45:10.347Z,35.60
2019-06-26T14:47:39.138Z,35.60
2019-06-26T14:50:08.223Z,35.60
2019-06-26T14:52:37.146Z,35.60
2019-06-26T14:55:06.449Z,35.50
2019-06-26T14:57:35.295Z,35.40
2019-06-26T15:00:06.499Z,35.40
2019-06-26T15:02:35.616Z,35.30
2019-06-26T15:05:06.539Z,35.30
2019-06-26T15:07:35.510Z,35.20
2019-06-26T15:10:07.259Z,35.20
2019-06-26T15:12:36.372Z,35.20
2019-06-26T15:15:06.007Z,35.20
2019-06-26T15:17:35.108Z,35.20
2019-06-26T15:20:04.911Z,35.20
2019-06-26T15:22:33.850Z,35.10
2019-06-26T15:25:02.816Z,35.20
2019-06-26T15:27:31.744Z,35.10
2019-06-26T15:30:00.740Z,35.00
2019-06-26T15:32:29.821Z,35.00
2019-06-26T15:34:58.739Z,35.00
2019-06-26T15:37:27.784Z,34.90
2019-06-26T15:39:56.716Z,34.80
2019-06-26T15:42:25.944Z,34.80
2019-06-26T15:44:55.055Z,34.70
2019-06-26T15:47:23.906Z,34.60
2019-06-26T15:49:53.046Z,34.60
2019-06-26T15:52:22.131Z,34.60
2019-06-26T15:54:51.187Z,34.40
2019-06-26T15:57:22.547Z,34.50
2019-06-26T15:59:51.813Z,34.40
2019-06-26T16:02:20.886Z,34.30
2019-06-26T16:04:50.255Z,34.30
2019-06-26T16:07:19.363Z,34.30
2019-06-26T16:09:48.551Z,34.30
2019-06-26T16:12:17.510Z,34.30
2019-06-26T16:14:46.515Z,34.20
2019-06-26T16:17:17.154Z,34.20
2019-06-26T16:19:45.944Z,34.20
2019-06-26T16:22:27.755Z,34.10
2019-06-26T16:24:45.521Z,34.20
2019-06-26T16:27:14.575Z,34.10
2019-06-26T16:29:43.586Z,34.10
2019-06-26T16:32:12.544Z,34.10
2019-06-26T16:34:41.404Z,34.00
2019-06-26T16:37:10.328Z,33.90
2019-06-26T16:39:39.304Z,33.80
2019-06-26T16:42:08.338Z,33.80
2019-06-26T16:44:37.293Z,33.70
2019-06-26T16:47:06.355Z,33.60
2019-06-26T16:49:35.350Z,33.60
2019-06-26T16:52:05.860Z,33.50
2019-06-26T16:54:34.711Z,33.50
2019-06-26T16:57:03.725Z,33.50
2019-06-26T16:59:32.711Z,33.50
2019-06-26T17:02:01.751Z,33.40
2019-06-26T17:04:30.663Z,33.40
2019-06-26T17:06:59.681Z,33.40
2019-06-26T17:09:28.809Z,33.30
2019-06-26T17:11:57.651Z,33.30
2019-06-26T17:14:26.716Z,33.30
2019-06-26T17:16:55.636Z,33.20
2019-06-26T17:19:24.455Z,33.10
2019-06-26T17:21:53.347Z,33.00
2019-06-26T17:24:22.304Z,32.90
2019-06-26T17:26:51.221Z,32.90
2019-06-26T17:29:20.154Z,32.80
2019-06-26T17:31:49.086Z,32.80
2019-06-26T17:34:18.345Z,32.80
2019-06-26T17:36:47.347Z,32.70
2019-06-26T17:39:16.293Z,32.70
2019-06-26T17:41:45.310Z,32.50
2019-06-26T17:44:14.572Z,32.60
2019-06-26T17:46:43.603Z,32.50
2019-06-26T17:49:12.452Z,32.40
2019-06-26T17:51:41.405Z,32.40
2019-06-26T17:54:10.249Z,32.30
2019-06-26T17:56:39.358Z,32.20
2019-06-26T17:59:08.363Z,32.10
2019-06-26T18:01:37.632Z,32.10
2019-06-26T18:04:06.704Z,32.00
2019-06-26T18:06:35.929Z,32.00
2019-06-26T18:09:07.759Z,31.90
2019-06-26T18:11:36.775Z,31.90
2019-06-26T18:14:05.583Z,31.80
2019-06-26T18:16:34.408Z,31.70
2019-06-26T18:19:04.352Z,31.70
2019-06-26T18:21:33.475Z,31.60
2019-06-26T18:24:02.646Z,31.50
2019-06-26T18:26:31.628Z,31.40
2019-06-26T18:29:00.702Z,31.40
2019-06-26T18:31:30.672Z,31.20
2019-06-26T18:34:00.171Z,31.20
2019-06-26T18:36:29.028Z,31.20
2019-06-26T18:38:58.124Z,31.10
2019-06-26T18:41:27.008Z,31.00
2019-06-26T18:43:55.952Z,31.00
2019-06-26T18:46:25.195Z,30.80
2019-06-26T18:48:54.275Z,30.80
2019-06-26T18:51:23.085Z,30.70
2019-06-26T18:53:53.824Z,30.70
2019-06-26T18:56:22.756Z,30.60
2019-06-26T18:58:51.716Z,30.50
2019-06-26T19:01:20.665Z,30.50
2019-06-26T19:03:49.622Z,30.40
2019-06-26T19:06:18.634Z,30.40
2019-06-26T19:08:47.632Z,30.30
2019-06-26T19:11:16.545Z,30.20
2019-06-26T19:13:45.641Z,30.20
2019-06-26T19:16:14.480Z,30.20
2019-06-26T19:18:43.510Z,30.10
2019-06-26T19:21:12.684Z,30.00
2019-06-26T19:23:41.624Z,29.90
2019-06-26T19:26:10.712Z,29.90
2019-06-26T19:28:39.842Z,29.70
2019-06-26T19:31:08.795Z,29.70
2019-06-26T19:33:37.764Z,29.60
2019-06-26T19:36:06.745Z,29.60
2019-06-26T19:38:35.745Z,29.60
2019-06-26T19:41:08.384Z,29.50
2019-06-26T19:43:35.790Z,29.40
2019-06-26T19:46:04.817Z,29.40
2019-06-26T19:48:33.875Z,29.30
2019-06-26T19:51:02.894Z,29.30
2019-06-26T19:53:31.938Z,29.30
2019-06-26T19:56:00.875Z,29.20
2019-06-26T19:58:29.942Z,29.10
2019-06-26T20:00:58.771Z,29.00
2019-06-26T20:03:27.770Z,28.90
2019-06-26T20:05:56.921Z,28.70
2019-06-26T20:08:25.914Z,28.60
2019-06-26T20:10:55.187Z,28.60
2019-06-26T20:13:24.174Z,28.50
2019-06-26T20:15:53.072Z,28.40
2019-06-26T20:18:22.246Z,28.30
2019-06-26T20:20:51.252Z,28.30
2019-06-26T20:23:20.175Z,28.20
2019-06-26T20:25:49.107Z,28.10
2019-06-26T20:28:18.228Z,28.10
2019-06-26T20:30:47.167Z,28.10
2019-06-26T20:33:16.226Z,28.10
2019-06-26T20:35:45.374Z,28.00
2019-06-26T20:38:14.398Z,28.00
2019-06-26T20:40:45.790Z,28.00
2019-06-26T20:43:13.992Z,28.10
2019-06-26T20:45:42.841Z,27.90
2019-06-26T20:48:11.836Z,27.90
2019-06-26T20:50:40.840Z,27.90
2019-06-26T20:53:09.946Z,27.90
2019-06-26T20:55:39.024Z,27.90
2019-06-26T20:58:08.039Z,27.80
2019-06-26T21:00:37.240Z,27.70
2019-06-26T21:03:06.056Z,27.80
2019-06-26T21:05:35.151Z,27.60
2019-06-26T21:08:04.258Z,27.60
2019-06-26T21:10:33.136Z,27.40
2019-06-26T21:13:02.132Z,27.40
2019-06-26T21:15:31.395Z,27.20
2019-06-26T21:18:00.461Z,27.20
2019-06-26T21:20:29.475Z,27.00
2019-06-26T21:22:58.392Z,26.90
2019-06-26T21:25:27.264Z,26.80
2019-06-26T21:27:56.424Z,26.80
2019-06-26T21:30:25.417Z,26.80
2019-06-26T21:32:54.440Z,26.80
2019-06-26T21:35:23.361Z,26.80
2019-06-26T21:37:52.275Z,26.80
2019-06-26T21:40:21.264Z,26.80
2019-06-26T21:42:50.243Z,26.80
2019-06-26T21:45:20.750Z,26.70
2019-06-26T21:47:49.899Z,26.60
2019-06-26T21:50:18.827Z,26.50
2019-06-26T21:52:47.879Z,26.40
2019-06-26T21:55:30.201Z,26.40
2019-06-26T21:57:47.401Z,26.40
2019-06-26T22:00:16.781Z,26.40
2019-06-26T22:02:45.756Z,26.20
2019-06-26T22:05:15.076Z,26.30
2019-06-26T22:07:44.039Z,26.20
2019-06-26T22:10:12.946Z,26.20
2019-06-26T22:12:41.781Z,26.20
2019-06-26T22:15:10.994Z,26.00
2019-06-26T22:17:40.001Z,26.00
2019-06-26T22:20:12.542Z,25.90
2019-06-26T22:22:39.513Z,25.90
2019-06-26T22:25:08.502Z,25.90
2019-06-26T22:27:37.417Z,25.80
2019-06-26T22:30:08.055Z,25.70
2019-06-26T22:32:37.136Z,25.60
2019-06-26T22:35:07.551Z,25.50
2019-06-26T22:37:36.681Z,25.50
2019-06-26T22:40:08.559Z,25.40
2019-06-26T22:42:37.364Z,25.30
2019-06-26T22:45:06.350Z,25.30
2019-06-26T22:47:35.459Z,25.30
2019-06-26T22:50:06.385Z,25.20
2019-06-26T22:52:35.551Z,25.20
2019-06-26T22:55:05.845Z,25.10
2019-06-26T22:57:34.687Z,25.00
2019-06-26T23:00:04.873Z,24.90
2019-06-26T23:02:33.764Z,24.90
2019-06-26T23:05:02.703Z,24.90
2019-06-26T23:07:31.672Z,24.70
2019-06-26T23:10:00.666Z,24.70
2019-06-26T23:12:29.701Z,24.60
2019-06-26T23:14:58.823Z,24.70
2019-06-26T23:17:27.832Z,24.60
2019-06-26T23:19:56.860Z,24.50
2019-06-26T23:22:25.847Z,24.50
2019-06-26T23:24:54.840Z,24.50
2019-06-26T23:27:23.987Z,24.30
2019-06-26T23:29:53.334Z,24.30
2019-06-26T23:32:22.383Z,24.20
2019-06-26T23:34:51.407Z,24.10
2019-06-26T23:37:20.408Z,24.10
2019-06-26T23:39:49.200Z,23.90
2019-06-26T23:42:18.454Z,24.00
2019-06-26T23:44:47.460Z,23.90
2019-06-26T23:47:16.387Z,23.90
2019-06-26T23:49:45.597Z,23.80
2019-06-26T23:52:14.718Z,23.70
2019-06-26T23:54:43.591Z,23.60
2019-06-26T23:57:12.664Z,23.60
2019-06-26T23:59:41.678Z,23.70
